createdAt,value
2023-03-06T00:01:10.872Z,59.78
2023-03-06T00:03:38.461Z,57.65
2023-03-06T00:06:06.207Z,57.28
2023-03-06T00:08:34.005Z,55.75
2023-03-06T00:11:01.482Z,58.80
2023-03-06T00:13:30.610Z,61.00
2023-03-06T00:16:00.853Z,59.10
2023-03-06T00:18:28.185Z,57.47
2023-03-06T00:20:55.631Z,59.08
2023-03-06T00:23:23.287Z,55.38
2023-03-06T00:25:50.711Z,59.78
2023-03-06T00:28:17.949Z,60.88
2023-03-06T00:30:46.415Z,63.20
2023-03-06T00:33:13.652Z,62.47
2023-03-06T00:35:42.678Z,59.33
2023-03-06T00:38:14.673Z,58.60
2023-03-06T00:40:41.949Z,64.45
2023-03-06T00:43:09.375Z,59.05
2023-03-06T00:45:37.281Z,60.28
2023-03-06T00:48:05.217Z,61.97
2023-03-06T00:50:32.880Z,58.13
2023-03-06T00:53:00.373Z,57.83
2023-03-06T00:55:29.305Z,58.35
2023-03-06T00:57:56.615Z,60.42
2023-03-06T01:00:23.927Z,63.17
2023-03-06T01:02:53.517Z,54.30
2023-03-06T01:05:22.564Z,59.95
2023-03-06T01:07:49.809Z,61.05
2023-03-06T01:10:17.260Z,55.10
2023-03-06T01:12:45.716Z,60.53
2023-03-06T01:15:13.990Z,57.83
2023-03-06T01:17:41.484Z,57.95
2023-03-06T01:20:13.788Z,53.53
2023-03-06T01:22:42.977Z,56.47
2023-03-06T01:25:10.975Z,59.78
2023-03-06T01:27:38.389Z,61.38
2023-03-06T01:30:06.298Z,51.45
2023-03-06T01:32:33.632Z,53.85
2023-03-06T01:35:01.005Z,54.53
2023-03-06T01:37:28.337Z,58.10
2023-03-06T01:39:56.652Z,53.10
2023-03-06T01:42:24.068Z,54.45
2023-03-06T01:45:08.399Z,55.05
2023-03-06T01:47:35.739Z,55.72
2023-03-06T01:50:04.472Z,58.25
2023-03-06T01:52:36.325Z,51.00
2023-03-06T01:55:12.020Z,60.47
2023-03-06T01:57:44.646Z,53.15
2023-03-06T02:00:19.149Z,58.17
2023-03-06T02:03:02.591Z,60.13
2023-03-06T02:05:30.426Z,56.85
2023-03-06T02:07:58.103Z,54.53
2023-03-06T02:10:25.756Z,56.22
2023-03-06T02:12:53.375Z,57.00
2023-03-06T02:15:23.255Z,54.47
2023-03-06T02:17:52.123Z,55.40
2023-03-06T02:20:29.418Z,57.65
2023-03-06T02:23:11.477Z,53.25
2023-03-06T02:25:45.241Z,55.53
2023-03-06T02:28:16.297Z,57.25
2023-03-06T02:30:45.476Z,59.47
2023-03-06T02:33:15.395Z,64.95
2023-03-06T02:36:03.927Z,58.22
2023-03-06T02:38:40.175Z,61.25
2023-03-06T02:41:08.834Z,57.03
2023-03-06T02:43:38.584Z,59.80
2023-03-06T02:46:06.863Z,59.60
2023-03-06T02:48:34.235Z,60.60
2023-03-06T02:51:01.779Z,62.25
2023-03-06T02:53:29.097Z,54.38
2023-03-06T02:55:56.325Z,58.78
2023-03-06T02:58:23.790Z,60.78
2023-03-06T03:00:51.302Z,60.53
2023-03-06T03:03:20.065Z,65.10
2023-03-06T03:05:47.445Z,59.85
2023-03-06T03:08:23.034Z,61.85
2023-03-06T03:10:55.967Z,58.80
2023-03-06T03:13:24.524Z,61.53
2023-03-06T03:16:04.773Z,56.13
2023-03-06T03:18:32.593Z,57.63
2023-03-06T03:20:59.950Z,57.40
2023-03-06T03:23:27.679Z,55.40
2023-03-06T03:26:07.185Z,57.40
2023-03-06T03:28:36.204Z,58.70
2023-03-06T03:31:08.685Z,55.95
2023-03-06T03:33:36.180Z,57.03
2023-03-06T03:36:06.017Z,61.28
2023-03-06T03:38:35.464Z,57.63
2023-03-06T03:41:03.856Z,57.65
2023-03-06T03:43:32.073Z,60.38
2023-03-06T03:46:00.650Z,56.83
2023-03-06T03:48:28.778Z,57.65
2023-03-06T03:51:05.546Z,53.38
2023-03-06T03:53:34.746Z,56.53
2023-03-06T03:56:03.769Z,53.55
2023-03-06T03:58:33.437Z,58.40
2023-03-06T04:01:01.264Z,58.67
2023-03-06T04:03:28.951Z,56.83
2023-03-06T04:05:57.923Z,58.08
2023-03-06T04:08:26.980Z,54.22
2023-03-06T04:10:54.872Z,55.65
2023-03-06T04:13:23.856Z,58.33
2023-03-06T04:15:53.739Z,63.10
2023-03-06T04:18:24.138Z,54.78
2023-03-06T04:20:54.019Z,57.72
2023-03-06T04:23:22.890Z,59.58
2023-03-06T04:25:50.984Z,57.58
2023-03-06T04:28:18.913Z,56.10
2023-03-06T04:30:46.228Z,59.47
2023-03-06T04:33:13.594Z,54.25
2023-03-06T04:35:42.466Z,57.60
2023-03-06T04:38:14.861Z,62.00
2023-03-06T04:40:44.474Z,55.22
2023-03-06T04:43:12.686Z,60.90
2023-03-06T04:45:39.942Z,56.22
2023-03-06T04:48:07.574Z,63.10
2023-03-06T04:50:35.262Z,60.50
2023-03-06T04:53:03.541Z,62.17
2023-03-06T04:55:31.005Z,60.40
2023-03-06T04:57:58.979Z,55.72
2023-03-06T05:00:31.709Z,57.80
2023-03-06T05:03:00.758Z,58.80
2023-03-06T05:05:28.386Z,60.95
2023-03-06T05:07:55.740Z,57.72
2023-03-06T05:10:23.485Z,55.35
2023-03-06T05:12:50.773Z,57.15
2023-03-06T05:15:18.648Z,59.78
2023-03-06T05:17:47.424Z,57.15
2023-03-06T05:20:15.628Z,57.28
2023-03-06T05:22:44.191Z,55.47
2023-03-06T05:25:11.983Z,52.38
2023-03-06T05:27:39.710Z,56.63
2023-03-06T05:30:08.026Z,57.08
2023-03-06T05:32:35.889Z,59.00
2023-03-06T05:35:05.876Z,54.55
2023-03-06T05:37:33.780Z,54.42
2023-03-06T05:40:04.025Z,54.38
2023-03-06T05:42:31.298Z,57.58
2023-03-06T05:44:58.594Z,56.40
2023-03-06T05:47:25.928Z,61.42
2023-03-06T05:49:53.168Z,58.33
2023-03-06T05:52:20.529Z,58.92
2023-03-06T05:54:52.257Z,57.03
2023-03-06T05:57:21.124Z,56.88
2023-03-06T05:59:49.488Z,59.58
2023-03-06T06:02:18.205Z,54.92
2023-03-06T06:04:45.645Z,56.22
2023-03-06T06:07:14.978Z,56.85
2023-03-06T06:09:45.334Z,56.22
2023-03-06T06:12:13.510Z,56.55
2023-03-06T06:14:40.776Z,61.33
2023-03-06T06:17:08.260Z,58.42
2023-03-06T06:19:35.705Z,65.55
2023-03-06T06:22:03.754Z,61.97
2023-03-06T06:24:32.171Z,64.88
2023-03-06T06:27:01.996Z,62.33
2023-03-06T06:29:31.512Z,62.60
2023-03-06T06:31:59.072Z,64.85
2023-03-06T06:34:26.987Z,62.75
2023-03-06T06:36:54.617Z,67.65
2023-03-06T06:39:23.721Z,60.58
2023-03-06T06:42:09.682Z,67.90
2023-03-06T06:44:40.983Z,69.18
2023-03-06T06:47:25.420Z,69.47
2023-03-06T06:49:55.360Z,65.75
2023-03-06T06:52:24.044Z,64.68
2023-03-06T06:54:51.965Z,63.63
2023-03-06T06:57:19.208Z,67.05
2023-03-06T06:59:46.543Z,65.00
2023-03-06T07:02:15.767Z,71.95
2023-03-06T07:05:00.421Z,69.38
2023-03-06T07:07:30.843Z,66.35
2023-03-06T07:09:59.315Z,67.45
2023-03-06T07:12:26.727Z,69.78
2023-03-06T07:14:54.017Z,67.60
2023-03-06T07:17:21.438Z,67.63
2023-03-06T07:19:48.744Z,64.05
2023-03-06T07:22:16.021Z,65.82
2023-03-06T07:24:43.271Z,67.38
2023-03-06T07:27:10.672Z,65.82
2023-03-06T07:29:37.876Z,67.93
2023-03-06T07:32:05.595Z,60.30
2023-03-06T07:34:32.848Z,58.17
2023-03-06T07:37:00.188Z,68.10
2023-03-06T07:39:28.215Z,64.18
2023-03-06T07:41:56.012Z,68.25
2023-03-06T07:44:23.257Z,72.35
2023-03-06T07:46:50.634Z,73.90
2023-03-06T07:49:18.108Z,62.88
2023-03-06T07:51:45.506Z,66.20
2023-03-06T07:54:13.030Z,68.43
2023-03-06T07:56:40.320Z,62.85
2023-03-06T07:59:07.706Z,65.35
2023-03-06T08:01:36.356Z,60.17
2023-03-06T08:04:03.916Z,66.60
2023-03-06T08:06:32.227Z,66.10
2023-03-06T08:08:59.653Z,66.40
2023-03-06T08:11:29.905Z,71.55
2023-03-06T08:13:58.618Z,65.05
2023-03-06T08:16:29.024Z,73.25
2023-03-06T08:18:57.268Z,68.47
2023-03-06T08:21:26.946Z,70.95
2023-03-06T08:23:54.929Z,74.85
2023-03-06T08:26:31.508Z,78.55
2023-03-06T08:29:01.222Z,72.75
2023-03-06T08:31:31.148Z,70.03
2023-03-06T08:34:01.289Z,75.05
2023-03-06T08:36:29.217Z,76.10
2023-03-06T08:38:56.777Z,76.68
2023-03-06T08:41:24.273Z,68.43
2023-03-06T08:43:53.049Z,74.57
2023-03-06T08:46:23.859Z,77.75
2023-03-06T08:48:51.532Z,75.90
2023-03-06T08:51:19.980Z,77.88
2023-03-06T08:53:47.563Z,76.15
2023-03-06T08:56:20.056Z,72.20
2023-03-06T08:58:47.444Z,74.22
2023-03-06T09:01:21.497Z,75.28
2023-03-06T09:03:49.774Z,73.30
2023-03-06T09:06:17.471Z,80.72
2023-03-06T09:08:44.887Z,79.13
2023-03-06T09:11:14.854Z,74.50
2023-03-06T09:13:43.629Z,80.55
2023-03-06T09:16:11.786Z,82.32
2023-03-06T09:18:39.483Z,79.18
2023-03-06T09:21:07.852Z,88.70
2023-03-06T09:23:36.292Z,81.32
2023-03-06T09:26:03.869Z,78.45
2023-03-06T09:28:31.671Z,81.50
2023-03-06T09:30:59.207Z,83.30
2023-03-06T09:33:28.640Z,82.50
2023-03-06T09:35:56.923Z,78.95
2023-03-06T09:38:27.480Z,86.28
2023-03-06T09:40:57.714Z,86.80
2023-03-06T09:43:47.220Z,78.25
2023-03-06T09:46:38.303Z,80.60
2023-03-06T09:49:30.773Z,80.22
2023-03-06T09:52:25.748Z,77.53
2023-03-06T09:54:59.446Z,73.75
2023-03-06T09:57:35.234Z,74.38
2023-03-06T10:00:19.376Z,71.15
2023-03-06T10:02:56.959Z,69.88
2023-03-06T10:05:29.076Z,72.30
2023-03-06T10:08:06.545Z,72.22
2023-03-06T10:10:59.236Z,63.58
2023-03-06T10:13:47.359Z,62.30
2023-03-06T10:16:30.887Z,60.90
2023-03-06T10:19:12.245Z,60.78
2023-03-06T10:22:05.070Z,60.97
2023-03-06T10:24:45.547Z,63.58
2023-03-06T10:27:21.682Z,61.58
2023-03-06T10:30:02.528Z,55.63
2023-03-06T10:32:58.431Z,58.50
2023-03-06T10:35:32.680Z,60.63
2023-03-06T10:38:17.425Z,58.90
2023-03-06T10:40:54.315Z,58.25
2023-03-06T10:43:22.975Z,63.17
2023-03-06T10:45:52.457Z,62.22
2023-03-06T10:48:23.000Z,58.53
2023-03-06T10:50:51.480Z,57.05
2023-03-06T10:53:31.691Z,58.03
2023-03-06T10:56:00.646Z,60.47
2023-03-06T10:58:30.932Z,54.72
2023-03-06T11:01:03.168Z,59.85
2023-03-06T11:03:31.271Z,57.15
2023-03-06T11:06:01.752Z,55.30
2023-03-06T11:08:30.190Z,56.67
2023-03-06T11:11:00.027Z,61.10
2023-03-06T11:13:30.998Z,59.13
2023-03-06T11:16:16.135Z,58.22
2023-03-06T11:19:06.850Z,61.30
2023-03-06T11:21:36.522Z,55.30
2023-03-06T11:24:19.874Z,55.88
2023-03-06T11:26:57.929Z,56.83
2023-03-06T11:29:43.351Z,54.72
2023-03-06T11:32:20.139Z,62.42
2023-03-06T11:34:56.527Z,62.33
2023-03-06T11:37:25.949Z,59.17
2023-03-06T11:40:11.499Z,54.83
2023-03-06T11:42:57.009Z,54.90
2023-03-06T11:45:31.839Z,64.32
2023-03-06T11:48:20.947Z,60.10
2023-03-06T11:50:49.753Z,60.53
2023-03-06T11:53:23.158Z,58.42
2023-03-06T11:55:50.394Z,61.70
2023-03-06T11:58:35.896Z,57.72
2023-03-06T12:01:47.729Z,55.63
2023-03-06T12:04:46.025Z,47.75
2023-03-06T12:07:32.952Z,48.53
2023-03-06T12:10:16.873Z,54.58
2023-03-06T12:13:05.371Z,49.80
2023-03-06T12:15:58.738Z,50.78
2023-03-06T12:18:53.893Z,49.35
2023-03-06T12:21:43.089Z,45.88
2023-03-06T12:24:37.210Z,45.40
2023-03-06T12:27:25.500Z,45.67
2023-03-06T12:30:11.616Z,47.80
2023-03-06T12:32:57.496Z,52.15
2023-03-06T12:35:49.254Z,44.78
2023-03-06T12:38:19.564Z,49.08
2023-03-06T12:41:15.586Z,47.80
2023-03-06T12:43:48.768Z,48.40
2023-03-06T12:46:20.484Z,42.38
2023-03-06T12:48:57.588Z,45.08
2023-03-06T12:51:25.051Z,40.65
2023-03-06T12:53:53.377Z,44.47
2023-03-06T12:56:23.419Z,48.22
2023-03-06T12:58:52.993Z,50.13
2023-03-06T13:01:55.712Z,46.45
2023-03-06T13:04:45.995Z,45.83
2023-03-06T13:07:40.914Z,52.35
2023-03-06T13:10:20.289Z,50.28
2023-03-06T13:13:01.186Z,47.72
2023-03-06T13:15:43.190Z,46.97
2023-03-06T13:18:22.773Z,36.03
2023-03-06T13:20:51.344Z,37.88
2023-03-06T13:23:33.578Z,36.30
2023-03-06T13:26:04.234Z,42.45
2023-03-06T13:28:46.122Z,36.30
2023-03-06T13:31:38.340Z,34.22
2023-03-06T13:34:31.726Z,41.42
2023-03-06T13:37:17.321Z,39.85
2023-03-06T13:39:59.652Z,41.67
2023-03-06T13:42:56.240Z,41.67
2023-03-06T13:45:37.965Z,45.45
2023-03-06T13:48:30.334Z,34.83
2023-03-06T13:50:55.514Z,45.00
2023-03-06T13:53:31.386Z,38.10
2023-03-06T13:56:09.364Z,36.22
2023-03-06T13:58:48.124Z,37.83
2023-03-06T14:01:29.304Z,36.80
2023-03-06T14:04:08.622Z,35.65
2023-03-06T14:06:35.796Z,31.20
2023-03-06T14:09:18.812Z,33.58
2023-03-06T14:11:51.758Z,34.92
2023-03-06T14:14:26.701Z,37.47
2023-03-06T14:16:54.432Z,38.17
2023-03-06T14:19:22.670Z,39.33
2023-03-06T14:21:57.571Z,39.95
2023-03-06T14:24:41.329Z,36.03
2023-03-06T14:27:17.770Z,40.35
2023-03-06T14:29:48.520Z,36.15
2023-03-06T14:32:22.384Z,44.35
2023-03-06T14:34:49.757Z,36.92
2023-03-06T14:37:24.570Z,41.40
2023-03-06T14:39:52.403Z,36.35
2023-03-06T14:42:25.384Z,38.58
2023-03-06T14:45:18.928Z,39.83
2023-03-06T14:47:53.267Z,40.00
2023-03-06T14:50:26.496Z,37.35
2023-03-06T14:52:57.902Z,41.35
2023-03-06T14:55:27.484Z,41.63
2023-03-06T14:58:18.653Z,44.80
2023-03-06T15:00:50.031Z,40.70
2023-03-06T15:03:28.196Z,46.47
2023-03-06T15:05:56.404Z,46.28
2023-03-06T15:08:31.946Z,39.33
2023-03-06T15:11:01.838Z,36.75
2023-03-06T15:13:30.951Z,39.38
2023-03-06T15:16:20.874Z,41.38
2023-03-06T15:18:57.128Z,35.97
2023-03-06T15:23:53.815Z,41.45
2023-03-06T15:26:36.853Z,42.85
2023-03-06T15:29:10.730Z,35.78
2023-03-06T15:31:43.384Z,35.75
2023-03-06T15:34:10.794Z,36.50
2023-03-06T15:36:43.833Z,33.97
2023-03-06T15:39:37.941Z,35.72
2023-03-06T15:42:26.712Z,31.77
2023-03-06T15:45:02.923Z,35.72
2023-03-06T15:49:57.435Z,31.90
2023-03-06T15:52:24.771Z,26.30
2023-03-06T15:54:52.104Z,27.02
2023-03-06T15:57:24.031Z,27.90
2023-03-06T15:59:51.957Z,25.67
2023-03-06T16:02:24.191Z,24.35
2023-03-06T16:04:52.008Z,27.65
2023-03-06T16:07:20.487Z,26.58
2023-03-06T16:09:48.203Z,26.27
2023-03-06T16:12:18.586Z,28.63
2023-03-06T16:14:47.618Z,24.88
2023-03-06T16:17:15.749Z,27.05
2023-03-06T16:19:43.495Z,24.35
2023-03-06T16:22:11.119Z,30.20
2023-03-06T16:24:38.463Z,27.10
2023-03-06T16:27:06.937Z,28.73
2023-03-06T16:29:34.972Z,23.55
2023-03-06T16:32:02.741Z,24.20
2023-03-06T16:34:30.043Z,27.02
2023-03-06T16:36:57.465Z,25.75
2023-03-06T16:39:24.823Z,26.90
2023-03-06T16:41:52.280Z,27.95
2023-03-06T16:44:20.586Z,31.27
2023-03-06T16:46:50.113Z,28.92
2023-03-06T16:49:23.388Z,28.27
2023-03-06T16:51:51.775Z,27.08
2023-03-06T16:54:19.730Z,32.33
2023-03-06T16:56:46.989Z,25.88
2023-03-06T16:59:14.887Z,26.85
2023-03-06T17:01:43.490Z,29.67
2023-03-06T17:04:11.534Z,29.67
2023-03-06T17:06:40.062Z,28.08
2023-03-06T17:09:08.008Z,30.70
2023-03-06T17:11:42.290Z,26.83
2023-03-06T17:14:10.419Z,28.17
2023-03-06T17:16:40.618Z,33.08
2023-03-06T17:19:08.363Z,34.95
2023-03-06T17:21:38.287Z,33.53
2023-03-06T17:24:06.238Z,33.28
2023-03-06T17:26:33.950Z,38.00
2023-03-06T17:29:01.231Z,36.60
2023-03-06T17:31:28.918Z,35.05
2023-03-06T17:34:00.495Z,36.10
2023-03-06T17:36:29.312Z,36.00
2023-03-06T17:38:58.655Z,38.30
2023-03-06T17:41:26.403Z,45.10
2023-03-06T17:43:56.071Z,40.63
2023-03-06T17:46:23.383Z,45.38
2023-03-06T17:48:50.701Z,36.03
2023-03-06T17:51:18.005Z,31.52
2023-03-06T17:53:45.255Z,34.78
2023-03-06T17:56:14.148Z,34.67
2023-03-06T17:58:41.586Z,35.20
2023-03-06T18:01:20.416Z,35.70
2023-03-06T18:03:50.077Z,42.78
2023-03-06T18:06:18.826Z,44.97
2023-03-06T18:08:46.540Z,51.08
2023-03-06T18:11:14.263Z,46.08
2023-03-06T18:13:44.879Z,48.58
2023-03-06T18:16:18.390Z,39.28
2023-03-06T18:18:46.675Z,46.92
2023-03-06T18:21:16.691Z,32.50
2023-03-06T18:23:44.460Z,29.95
2023-03-06T18:26:25.034Z,33.13
2023-03-06T18:28:54.707Z,33.15
2023-03-06T18:31:34.672Z,35.42
2023-03-06T18:34:08.032Z,32.13
2023-03-06T18:36:36.426Z,34.35
2023-03-06T18:39:07.150Z,34.60
2023-03-06T18:41:34.617Z,31.20
2023-03-06T18:44:02.384Z,32.13
2023-03-06T18:46:32.139Z,33.65
2023-03-06T18:49:00.121Z,31.95
2023-03-06T18:51:27.725Z,31.75
2023-03-06T18:54:00.503Z,31.52
2023-03-06T18:56:27.776Z,36.05
2023-03-06T18:58:55.195Z,35.30
2023-03-06T19:01:23.159Z,33.65
2023-03-06T19:03:50.649Z,35.30
2023-03-06T19:06:18.762Z,37.08
2023-03-06T19:08:46.169Z,36.83
2023-03-06T19:11:15.488Z,36.35
2023-03-06T19:13:43.505Z,36.47
2023-03-06T19:16:18.816Z,37.97
2023-03-06T19:18:46.203Z,35.30
2023-03-06T19:21:16.341Z,38.40
2023-03-06T19:23:44.024Z,38.97
2023-03-06T19:26:11.875Z,42.47
2023-03-06T19:28:40.847Z,37.40
2023-03-06T19:31:10.320Z,39.00
2023-03-06T19:33:38.042Z,36.63
2023-03-06T19:36:07.544Z,41.67
2023-03-06T19:38:34.963Z,38.35
2023-03-06T19:41:02.277Z,36.55
2023-03-06T19:43:30.449Z,41.45
2023-03-06T19:45:58.018Z,39.40
2023-03-06T19:48:25.304Z,37.92
2023-03-06T19:50:52.558Z,39.70
2023-03-06T19:53:19.955Z,37.70
2023-03-06T19:55:47.896Z,35.85
2023-03-06T19:58:15.168Z,39.42
2023-03-06T20:00:42.892Z,39.80
2023-03-06T20:03:10.212Z,37.05
2023-03-06T20:05:37.437Z,39.08
2023-03-06T20:08:05.049Z,41.10
2023-03-06T20:10:35.940Z,41.85
2023-03-06T20:13:03.843Z,42.85
2023-03-06T20:15:31.291Z,39.38
2023-03-06T20:17:58.582Z,44.80
2023-03-06T20:20:25.892Z,42.80
2023-03-06T20:22:53.168Z,36.10
2023-03-06T20:25:20.465Z,40.53
2023-03-06T20:27:47.778Z,40.70
2023-03-06T20:30:15.323Z,42.55
2023-03-06T20:32:42.650Z,42.35
2023-03-06T20:35:10.036Z,39.38
2023-03-06T20:37:38.216Z,37.95
2023-03-06T20:40:06.302Z,40.00
2023-03-06T20:42:33.705Z,40.63
2023-03-06T20:45:00.962Z,39.63
2023-03-06T20:47:28.204Z,41.65
2023-03-06T20:49:55.876Z,39.45
2023-03-06T20:52:23.219Z,37.35
2023-03-06T20:54:50.587Z,43.30
2023-03-06T20:57:18.062Z,48.42
2023-03-06T20:59:45.443Z,53.25
2023-03-06T21:02:14.798Z,54.67
2023-03-06T21:04:42.252Z,51.70
2023-03-06T21:07:09.538Z,57.67
2023-03-06T21:09:37.835Z,59.25
2023-03-06T21:12:06.040Z,54.90
2023-03-06T21:14:33.360Z,52.88
2023-03-06T21:17:01.329Z,52.03
2023-03-06T21:19:28.647Z,54.83
2023-03-06T21:21:55.978Z,54.13
2023-03-06T21:24:23.230Z,52.60
2023-03-06T21:26:51.305Z,51.30
2023-03-06T21:29:18.718Z,55.55
2023-03-06T21:31:46.049Z,46.75
2023-03-06T21:34:13.425Z,45.10
2023-03-06T21:36:40.726Z,49.80
2023-03-06T21:39:08.007Z,48.97
2023-03-06T21:41:35.390Z,44.45
2023-03-06T21:44:05.444Z,46.00
2023-03-06T21:46:34.058Z,44.30
2023-03-06T21:49:06.608Z,49.05
2023-03-06T21:51:33.930Z,48.30
2023-03-06T21:54:02.884Z,51.30
2023-03-06T21:56:30.221Z,52.60
2023-03-06T21:58:58.209Z,44.92
2023-03-06T22:01:28.320Z,51.60
2023-03-06T22:03:55.808Z,52.08
2023-03-06T22:06:25.369Z,53.10
2023-03-06T22:08:54.615Z,50.95
2023-03-06T22:11:24.146Z,52.78
2023-03-06T22:13:53.289Z,52.08
2023-03-06T22:16:20.818Z,52.38
2023-03-06T22:18:50.766Z,52.45
2023-03-06T22:21:21.095Z,50.78
2023-03-06T22:23:53.681Z,50.00
2023-03-06T22:26:21.546Z,55.13
2023-03-06T22:28:49.178Z,51.45
2023-03-06T22:31:19.045Z,48.30
2023-03-06T22:33:46.567Z,51.95
2023-03-06T22:36:18.634Z,50.55
2023-03-06T22:38:47.460Z,53.28
2023-03-06T22:41:17.794Z,54.85
2023-03-06T22:43:45.164Z,57.72
2023-03-06T22:46:16.032Z,52.45
2023-03-06T22:48:43.774Z,50.60
2023-03-06T22:51:17.496Z,53.10
2023-03-06T22:53:45.743Z,47.58
2023-03-06T22:56:15.942Z,57.03
2023-03-06T22:58:44.920Z,52.00
2023-03-06T23:01:17.911Z,49.08
2023-03-06T23:03:48.041Z,51.90
2023-03-06T23:06:24.714Z,55.80
2023-03-06T23:08:55.173Z,53.25
2023-03-06T23:11:23.969Z,49.42
2023-03-06T23:14:12.559Z,50.22
2023-03-06T23:16:58.275Z,52.63
2023-03-06T23:19:44.422Z,55.40
2023-03-06T23:22:30.067Z,61.33
2023-03-06T23:25:16.537Z,59.75
2023-03-06T23:27:43.790Z,54.92
2023-03-06T23:30:12.323Z,56.50
2023-03-06T23:32:39.629Z,55.15
2023-03-06T23:35:07.648Z,55.92
2023-03-06T23:37:35.028Z,53.10
2023-03-06T23:40:02.635Z,54.05
2023-03-06T23:42:30.916Z,50.33
2023-03-06T23:44:58.226Z,52.63
2023-03-06T23:47:25.635Z,49.83
2023-03-06T23:49:52.942Z,52.90
2023-03-06T23:52:20.177Z,50.28
2023-03-06T23:54:49.860Z,45.55
2023-03-06T23:57:17.307Z,54.63
2023-03-06T23:59:45.280Z,59.05
